This is the latest recevied weather packets stored in our database for station/object IU2EVW-3. If no packets are shown the sender has not sent any weather packets the latest 10 day(s).
| Time | Temp. | Humidity | Pressure | Rain* | Wind** | Luminosity | Snow |
|---|---|---|---|---|---|---|---|
| 1777592412 | 11.67° C | 41% | 1026.9 hPa | - | - | - | - |
| 1777591211 | 12.22° C | 41% | 1026.7 hPa | - | - | - | - |
| 1777590010 | 12.22° C | 41% | 1026.7 hPa | - | - | - | - |
| 1777588809 | 12.78° C | 40% | 1026.6 hPa | - | - | - | - |
| 1777587608 | 12.78° C | 38% | 1026.4 hPa | - | - | - | - |
| 1777586406 | 13.33° C | 38% | 1026.2 hPa | - | - | - | - |
| 1777585205 | 13.33° C | 37% | 1026 hPa | - | - | - | - |
| 1777584004 | 13.89° C | 36% | 1025.8 hPa | - | - | - | - |
| 1777582803 | 14.44° C | 37% | 1025.6 hPa | - | - | - | - |
| 1777581602 | 14.44° C | 40% | 1025.5 hPa | - | - | - | - |
| 1777580400 | 15° C | 43% | 1025.4 hPa | - | - | - | - |
| 1777579199 | 15° C | 44% | 1025.3 hPa | - | - | - | - |
| 1777577998 | 15.56° C | 44% | 1025 hPa | - | - | - | - |
| 1777576797 | 15.56° C | 44% | 1024.7 hPa | - | - | - | - |
| 1777575596 | 16.11° C | 43% | 1024.4 hPa | - | - | - | - |
| 1777574394 | 16.11° C | 42% | 1024 hPa | - | - | - | - |
| 1777573193 | 16.67° C | 41% | 1023.8 hPa | - | - | - | - |
| 1777571992 | 17.78° C | 39% | 1023.4 hPa | - | - | - | - |
| 1777570791 | 19.44° C | 36% | 1023.2 hPa | - | - | - | - |
| 1777569590 | 20° C | 34% | 1023 hPa | - | - | - | - |
| 1777568389 | 19.44° C | 35% | 1023.1 hPa | - | - | - | - |
| 1777567187 | 19.44° C | 35% | 1023.1 hPa | - | - | - | - |
| 1777565986 | 18.33° C | 37% | 1023.1 hPa | - | - | - | - |
| 1777564785 | 18.33° C | 37% | 1023 hPa | - | - | - | - |
| 1777563584 | 18.33° C | 36% | 1023.1 hPa | - | - | - | - |
* Rain since midnight (hover to see other rain measurements)
** Current wind speed in m/s (hover to see current wind gust speed)